Time;durP1;ratioP1;P1;durP2;ratioP2;P2;SDS_P1;SDS_P2;PMS_P1;PMS_P2;Temp;Humidity;BMP_temperature;BMP_pressure;BME280_temperature;BME280_humidity;BME280_pressure;Samples;Min_cycle;Max_cycle;Signal;HPM_P1;HPM_P2
2022/01/27 00:00:28;;;;;;;20.33;11.07;;;1.60;99.90;;;;;;5059772;28;20661;-84
2022/01/27 00:05:27;;;;;;;18.73;9.03;;;;;;;;;;5075040;28;20229;-81
2022/01/27 00:10:55;;;;;;;19.53;10.87;;;;;;;;;;5058860;28;20249;-81
2022/01/27 00:13:19;;;;;;;19.90;8.73;;;1.50;99.90;;;;;;5059015;28;20226;-81
2022/01/27 00:15:49;;;;;;;17.90;10.03;;;1.50;99.90;;;;;;5056460;28;20214;-82
2022/01/27 00:18:17;;;;;;;22.53;10.40;;;;;;;;;;5056745;28;20187;-81
2022/01/27 00:20:45;;;;;;;17.37;9.23;;;1.40;99.90;;;;;;5056517;28;20583;-82
2022/01/27 00:23:11;;;;;;;14.77;8.67;;;1.40;99.90;;;;;;5056528;28;20211;-81
2022/01/27 00:25:37;;;;;;;19.60;10.27;;;3.00;99.90;;;;;;5056580;28;20569;-82
2022/01/27 00:28:05;;;;;;;15.73;9.33;;;1.60;99.90;;;;;;5074254;28;20175;-81
2022/01/27 00:30:32;;;;;;;21.13;10.97;;;1.40;99.90;;;;;;5057217;28;20235;-81
2022/01/27 00:32:57;;;;;;;23.87;11.90;;;2.00;99.90;;;;;;5039488;28;20681;-81
2022/01/27 00:35:23;;;;;;;16.13;8.70;;;1.40;99.90;;;;;;5056355;28;20179;-82
2022/01/27 00:37:49;;;;;;;18.20;9.67;;;;;;;;;;5056358;28;20207;-81
2022/01/27 00:40:15;;;;;;;16.40;9.20;;;;;;;;;;5056364;28;20182;-81
2022/01/27 00:42:41;;;;;;;17.60;9.23;;;1.10;99.90;;;;;;5073819;28;20182;-80
2022/01/27 00:45:08;;;;;;;20.90;10.60;;;1.20;99.90;;;;;;5073846;28;20214;-81
2022/01/27 00:47:34;;;;;;;18.30;9.87;;;1.20;99.90;;;;;;5056061;28;20203;-81
2022/01/27 00:50:00;;;;;;;19.83;8.70;;;1.60;99.90;;;;;;5055582;28;20599;-82
2022/01/27 00:52:40;;;;;;;20.27;10.90;;;1.20;99.90;;;;;;5055797;28;20216;-82
2022/01/27 00:55:07;;;;;;;19.20;10.50;;;1.10;99.90;;;;;;5073743;28;20260;-83
2022/01/27 01:00:02;;;;;;;18.47;9.03;;;1.20;99.90;;;;;;5055958;28;20597;-82
2022/01/27 01:07:52;;;;;;;16.73;10.20;;;1.00;99.90;;;;;;5073441;28;20278;-82
2022/01/27 01:15:56;;;;;;;20.60;11.00;;;2.80;99.90;;;;;;5057704;28;20225;-82
2022/01/27 01:18:38;;;;;;;17.57;10.27;;;1.10;99.90;;;;;;5055474;28;20180;-82
2022/01/27 01:32:14;;;;;;;14.37;7.30;;;2.30;99.90;;;;;;5057890;28;20198;-82
2022/01/27 01:34:44;;;;;;;17.30;8.97;;;0.90;99.90;;;;;;5072735;28;20597;-82
2022/01/27 01:37:10;;;;;;;20.17;12.20;;;2.30;99.90;;;;;;5056234;28;20302;-81
2022/01/27 01:39:37;;;;;;;17.77;10.27;;;1.00;99.90;;;;;;5073245;28;20185;-81
2022/01/27 01:42:08;;;;;;;19.97;10.67;;;0.90;99.90;;;;;;5054757;28;20179;-81
2022/01/27 01:44:34;;;;;;;17.40;9.53;;;1.00;99.90;;;;;;5038531;28;20194;-82
2022/01/27 01:47:00;;;;;;;18.50;9.27;;;2.40;99.90;;;;;;5072792;28;20175;-82
2022/01/27 01:49:27;;;;;;;19.60;11.90;;;1.60;99.90;;;;;;5055300;28;20245;-81
2022/01/27 01:51:57;;;;;;;18.00;10.07;;;2.40;99.90;;;;;;5072618;28;20201;-82
2022/01/27 01:54:24;;;;;;;19.10;9.27;;;0.90;99.90;;;;;;5072958;28;20714;-81
2022/01/27 01:56:50;;;;;;;18.50;9.53;;;1.00;99.90;;;;;;5072747;28;20175;-85
2022/01/27 01:59:16;;;;;;;16.40;9.43;;;2.00;99.90;;;;;;5054774;28;20189;-81
2022/01/27 02:01:42;;;;;;;16.33;9.47;;;1.00;99.90;;;;;;5072907;28;20241;-81
2022/01/27 02:04:10;;;;;;;15.03;7.77;;;1.20;99.90;;;;;;5073118;28;20182;-82
2022/01/27 02:06:54;;;;;;;17.53;8.80;;;2.60;99.90;;;;;;5038494;28;20620;-81
2022/01/27 02:09:49;;;;;;;12.90;7.67;;;2.90;99.90;;;;;;5073965;28;20191;-83
2022/01/27 02:18:00;;;;;;;20.80;10.00;;;;;;;;;;5062042;28;20657;-81
2022/01/27 02:20:26;;;;;;;20.73;9.43;;;;;;;;;;5059204;28;20199;-81
2022/01/27 02:22:52;;;;;;;17.10;9.73;;;;;;;;;;5075554;28;20183;-81
2022/01/27 02:25:18;;;;;;;16.50;8.63;;;1.00;99.90;;;;;;5075206;28;20217;-81
2022/01/27 02:27:44;;;;;;;18.03;10.80;;;0.90;99.90;;;;;;5058856;28;20291;-81
2022/01/27 02:30:10;;;;;;;17.10;9.70;;;1.00;99.90;;;;;;5058634;28;20179;-81
2022/01/27 02:32:36;;;;;;;11.10;6.90;;;1.00;99.90;;;;;;5058669;28;20187;-82
2022/01/27 02:35:04;;;;;;;15.93;9.17;;;1.50;99.90;;;;;;5058611;28;20688;-83
2022/01/27 02:37:30;;;;;;;17.17;8.93;;;1.00;99.90;;;;;;5077056;28;20175;-83
2022/01/27 02:39:56;;;;;;;14.63;7.63;;;1.50;99.90;;;;;;5058608;28;20679;-86
2022/01/27 02:42:30;;;;;;;17.07;9.47;;;1.20;99.90;;;;;;5076706;28;20179;-83
2022/01/27 02:45:12;;;;;;;18.20;10.30;;;0.90;99.90;;;;;;5058573;28;20270;-82
2022/01/27 02:47:38;;;;;;;8.13;5.47;;;;;;;;;;5076406;28;20175;-82
2022/01/27 02:50:06;;;;;;;18.70;10.07;;;1.00;99.90;;;;;;5075894;28;20514;-83
2022/01/27 02:52:31;;;;;;;17.00;8.77;;;1.10;99.90;;;;;;5058330;28;20209;-82
2022/01/27 02:54:57;;;;;;;19.13;9.97;;;1.00;99.90;;;;;;5076211;28;20211;-85
2022/01/27 02:57:23;;;;;;;18.50;9.77;;;1.00;99.90;;;;;;5058334;28;20193;-82
2022/01/27 02:59:49;;;;;;;19.77;10.07;;;1.10;99.90;;;;;;5058256;28;20619;-82
2022/01/27 03:02:16;;;;;;;17.93;9.57;;;1.70;99.90;;;;;;5075746;28;20174;-83
2022/01/27 03:04:41;;;;;;;15.83;8.80;;;1.10;99.90;;;;;;5058232;28;20212;-82
2022/01/27 03:07:07;;;;;;;15.43;7.73;;;2.30;99.90;;;;;;5041498;28;20576;-82
2022/01/27 03:09:34;;;;;;;21.40;11.33;;;1.00;99.90;;;;;;5076091;28;20638;-82
2022/01/27 03:12:01;;;;;;;20.87;11.17;;;1.10;99.90;;;;;;5041352;28;20189;-87
2022/01/27 03:14:29;;;;;;;15.63;8.23;;;1.10;99.90;;;;;;5075879;28;20207;-82
2022/01/27 03:16:58;;;;;;;17.30;9.80;;;2.70;99.90;;;;;;5057821;28;20625;-82
2022/01/27 03:19:24;;;;;;;15.53;7.77;;;2.00;99.90;;;;;;5075830;28;20178;-82
2022/01/27 03:21:50;;;;;;;17.67;9.77;;;1.40;99.90;;;;;;5041310;28;20179;-82
2022/01/27 03:24:17;;;;;;;18.10;9.30;;;1.00;99.90;;;;;;5044232;28;20247;-82
2022/01/27 03:26:44;;;;;;;16.37;8.60;;;1.20;99.90;;;;;;5076619;28;20313;-83
2022/01/27 03:29:09;;;;;;;13.70;8.10;;;1.00;99.90;;;;;;5024611;28;20262;-83
2022/01/27 03:31:35;;;;;;;17.80;10.10;;;2.10;99.90;;;;;;5057553;28;20317;-83
2022/01/27 03:34:01;;;;;;;16.93;9.67;;;0.80;99.90;;;;;;5041064;28;20211;-82
2022/01/27 03:36:27;;;;;;;16.53;9.43;;;;;;;;;;5041174;28;20179;-83
2022/01/27 03:38:53;;;;;;;16.93;10.37;;;0.90;99.90;;;;;;5075390;28;20175;-83
2022/01/27 03:41:21;;;;;;;16.93;9.70;;;2.10;99.90;;;;;;5075165;28;20262;-83
2022/01/27 03:43:48;;;;;;;17.97;9.63;;;0.80;99.90;;;;;;5041457;28;20183;-83
2022/01/27 03:46:15;;;;;;;18.47;10.03;;;3.60;99.90;;;;;;5057222;28;20252;-83
2022/01/27 03:48:40;;;;;;;15.17;9.10;;;2.70;99.90;;;;;;5057381;28;20190;-82
2022/01/27 03:51:06;;;;;;;14.00;7.83;;;1.00;99.90;;;;;;5057045;28;20186;-84
2022/01/27 03:53:32;;;;;;;14.10;7.77;;;1.00;99.90;;;;;;5040555;28;20251;-82
2022/01/27 03:55:58;;;;;;;17.07;10.20;;;2.20;99.90;;;;;;5075211;28;20642;-82
2022/01/27 03:58:23;;;;;;;21.63;12.20;;;1.40;99.90;;;;;;5057042;28;20229;-83
2022/01/27 04:00:49;;;;;;;18.90;11.10;;;0.90;99.90;;;;;;5074858;28;20258;-82
2022/01/27 04:03:17;;;;;;;17.70;10.60;;;2.70;99.90;;;;;;5074760;28;20205;-83
2022/01/27 04:05:50;;;;;;;21.80;10.77;;;1.10;99.90;;;;;;5040554;28;20180;-84
2022/01/27 04:08:16;;;;;;;20.23;10.97;;;1.00;99.90;;;;;;5041390;28;20534;-83
2022/01/27 04:10:42;;;;;;;13.60;7.80;;;2.80;99.90;;;;;;5056815;28;20541;-83
2022/01/27 04:13:08;;;;;;;14.67;7.87;;;1.00;99.90;;;;;;5056636;28;20198;-86
2022/01/27 04:15:36;;;;;;;15.93;8.97;;;1.10;99.90;;;;;;5056595;28;20179;-83
2022/01/27 04:18:02;;;;;;;17.40;8.47;;;1.70;99.90;;;;;;5074445;28;20213;-82
2022/01/27 04:20:27;;;;;;;15.00;7.80;;;1.00;99.90;;;;;;5056533;28;20182;-83
2022/01/27 04:22:53;;;;;;;13.07;7.70;;;1.70;99.90;;;;;;5074627;28;20612;-83
2022/01/27 04:25:19;;;;;;;15.23;8.07;;;;;;;;;;5056476;28;20179;-83
2022/01/27 04:27:49;;;;;;;16.33;8.17;;;1.00;99.90;;;;;;5074820;28;20699;-83
2022/01/27 04:30:18;;;;;;;11.43;6.97;;;1.00;99.90;;;;;;5057293;28;20171;-83
2022/01/27 04:32:50;;;;;;;16.67;8.87;;;2.60;99.90;;;;;;5056939;28;20183;-82
2022/01/27 04:35:19;;;;;;;30.30;11.47;;;1.00;99.90;;;;;;5055850;28;20211;-82
2022/01/27 04:46:04;;;;;;;18.97;10.30;;;1.10;99.90;;;;;;5057426;28;20188;-82
2022/01/27 04:48:35;;;;;;;17.53;9.37;;;1.00;99.90;;;;;;5041047;28;20193;-83
2022/01/27 04:51:06;;;;;;;20.27;10.70;;;1.00;99.90;;;;;;5040708;28;20199;-82
2022/01/27 04:53:37;;;;;;;17.77;10.30;;;2.20;99.90;;;;;;5040140;28;20221;-82
2022/01/27 04:56:04;;;;;;;22.40;11.17;;;2.70;99.90;;;;;;5074005;28;20203;-83
2022/01/27 04:58:32;;;;;;;21.17;11.43;;;2.90;99.90;;;;;;5074022;28;20179;-83
2022/01/27 05:01:01;;;;;;;18.90;9.93;;;1.70;99.90;;;;;;5056747;28;20183;-83
2022/01/27 05:03:40;;;;;;;23.40;10.70;;;1.40;99.90;;;;;;5073797;28;20270;-82
2022/01/27 05:06:05;;;;;;;17.93;8.77;;;2.70;99.90;;;;;;5073891;28;20171;-82
2022/01/27 05:08:32;;;;;;;19.80;8.33;;;1.00;99.90;;;;;;5073834;28;20274;-82
2022/01/27 05:11:02;;;;;;;19.63;9.37;;;2.40;99.90;;;;;;5073658;28;20224;-82
2022/01/27 05:13:35;;;;;;;20.77;10.73;;;1.90;99.90;;;;;;5023442;28;20222;-82
2022/01/27 05:16:01;;;;;;;20.27;10.03;;;;;;;;;;5057031;28;20186;-82
2022/01/27 05:18:27;;;;;;;20.23;9.50;;;0.90;99.90;;;;;;5073559;28;20205;-82
2022/01/27 05:20:52;;;;;;;18.53;9.00;;;1.40;99.90;;;;;;5055836;28;20185;-81
2022/01/27 05:23:18;;;;;;;24.37;10.17;;;1.00;99.90;;;;;;5038867;28;20184;-82
2022/01/27 05:25:44;;;;;;;22.70;11.27;;;;;;;;;;5073432;28;20186;-81
2022/01/27 05:28:10;;;;;;;25.97;12.27;;;;;;;;;;5055372;28;20547;-81
2022/01/27 05:30:36;;;;;;;21.87;11.83;;;;;;;;;;5038842;28;20218;-83
2022/01/27 05:33:02;;;;;;;23.87;10.93;;;;;;;;;;5073637;28;20180;-81
2022/01/27 05:35:28;;;;;;;25.77;12.80;;;;;;;;;;5038358;28;20222;-81
2022/01/27 05:37:54;;;;;;;22.00;11.67;;;0.90;99.90;;;;;;5055740;28;20179;-81
2022/01/27 05:40:20;;;;;;;28.17;14.07;;;2.40;99.90;;;;;;5038689;28;20547;-82
2022/01/27 05:42:45;;;;;;;20.93;11.80;;;2.10;99.90;;;;;;5055737;28;20662;-81
2022/01/27 05:45:11;;;;;;;21.87;11.57;;;0.90;99.90;;;;;;5055459;28;20667;-82
2022/01/27 05:47:37;;;;;;;26.23;13.00;;;0.80;99.90;;;;;;5038573;28;20192;-82
2022/01/27 05:50:04;;;;;;;23.87;12.50;;;1.80;99.90;;;;;;5055548;28;20235;-82
2022/01/27 05:52:31;;;;;;;17.53;9.53;;;0.90;99.90;;;;;;5055234;28;20623;-82
2022/01/27 05:54:57;;;;;;;29.03;12.87;;;0.70;99.90;;;;;;5039008;28;20217;-82
2022/01/27 05:57:22;;;;;;;28.00;13.53;;;1.60;99.90;;;;;;5054948;28;20197;-82
2022/01/27 05:59:48;;;;;;;24.03;13.10;;;0.80;99.90;;;;;;5055429;28;20175;-82
2022/01/27 06:02:14;;;;;;;25.30;11.70;;;2.70;99.90;;;;;;5039913;28;20179;-83
2022/01/27 06:04:39;;;;;;;31.00;13.47;;;0.80;99.90;;;;;;5049963;28;20188;-83
2022/01/27 06:07:05;;;;;;;16.50;9.60;;;0.80;99.90;;;;;;5055389;28;20191;-83
2022/01/27 06:09:30;;;;;;;26.07;11.17;;;2.10;99.90;;;;;;5016956;28;20284;-83
2022/01/27 06:11:56;;;;;;;20.80;11.30;;;2.20;99.90;;;;;;5036242;28;20279;-82
2022/01/27 06:14:22;;;;;;;19.13;11.17;;;0.90;99.90;;;;;;5034640;28;20208;-82
2022/01/27 06:16:48;;;;;;;24.40;12.17;;;0.80;99.90;;;;;;5034907;28;20183;-83
2022/01/27 06:19:14;;;;;;;22.07;12.50;;;0.90;99.90;;;;;;5034256;28;20190;-85
2022/01/27 06:21:43;;;;;;;22.60;13.10;;;0.90;99.90;;;;;;5053065;28;20187;-85
2022/01/27 06:24:09;;;;;;;19.73;10.60;;;1.00;99.90;;;;;;5034195;28;20187;-84
2022/01/27 06:26:34;;;;;;;31.70;13.13;;;2.20;99.90;;;;;;5051670;28;20622;-84
2022/01/27 06:29:00;;;;;;;23.63;12.30;;;2.50;99.90;;;;;;5051685;28;20185;-84
2022/01/27 06:31:26;;;;;;;22.00;12.57;;;1.70;99.90;;;;;;5051897;28;20183;-85
2022/01/27 06:33:54;;;;;;;29.07;13.03;;;1.00;99.90;;;;;;5033631;28;20215;-85
2022/01/27 06:36:20;;;;;;;24.90;11.53;;;1.50;99.90;;;;;;5033954;28;20201;-82
2022/01/27 06:38:46;;;;;;;17.67;9.50;;;;;;;;;;5031689;28;20269;-85
2022/01/27 06:41:13;;;;;;;28.67;13.43;;;;;;;;;;5050940;28;20192;-82
2022/01/27 06:43:39;;;;;;;26.20;13.53;;;0.90;99.90;;;;;;5049768;28;20192;-80
2022/01/27 06:46:05;;;;;;;23.37;11.77;;;2.40;99.90;;;;;;5031415;28;20198;-84
2022/01/27 06:48:31;;;;;;;25.13;12.30;;;0.90;99.90;;;;;;5031833;28;20696;-84
2022/01/27 06:50:56;;;;;;;23.00;11.90;;;0.90;99.90;;;;;;5043617;28;20197;-83
2022/01/27 06:53:23;;;;;;;30.03;14.30;;;1.60;99.90;;;;;;5017468;28;20188;-83
2022/01/27 06:55:49;;;;;;;27.73;12.17;;;1.80;99.90;;;;;;5037053;28;20192;-82
2022/01/27 06:58:16;;;;;;;22.57;12.13;;;0.70;99.90;;;;;;5025130;28;20184;-82
2022/01/27 07:00:47;;;;;;;19.63;10.50;;;0.90;99.90;;;;;;5048663;28;20197;-82
2022/01/27 07:03:15;;;;;;;22.40;10.87;;;0.70;99.90;;;;;;5032115;28;20198;-82
2022/01/27 07:05:42;;;;;;;26.00;11.63;;;1.00;99.90;;;;;;5065402;28;20207;-82
2022/01/27 07:08:12;;;;;;;25.43;12.00;;;1.00;99.90;;;;;;5044839;28;20187;-83
2022/01/27 07:10:37;;;;;;;22.27;10.90;;;0.90;99.90;;;;;;5059325;28;20262;-81
2022/01/27 07:13:03;;;;;;;25.00;12.50;;;3.40;99.90;;;;;;5042810;28;20187;-82
2022/01/27 07:15:30;;;;;;;25.10;13.87;;;1.00;99.90;;;;;;5028250;28;20220;-82
2022/01/27 07:17:57;;;;;;;21.27;11.23;;;1.00;99.90;;;;;;5046823;28;20176;-80
2022/01/27 07:20:23;;;;;;;22.30;11.03;;;-1.70;99.90;;;;;;5051722;28;20185;-81
2022/01/27 07:22:49;;;;;;;22.80;11.83;;;1.00;99.90;;;;;;5042015;28;20531;-83
2022/01/27 07:25:14;;;;;;;23.07;12.03;;;1.00;99.90;;;;;;5038624;28;20195;-81
2022/01/27 07:27:40;;;;;;;23.77;11.83;;;2.20;99.90;;;;;;5044399;28;20242;-81
2022/01/27 07:30:06;;;;;;;25.80;14.00;;;1.30;99.90;;;;;;5056281;28;20179;-82
2022/01/27 07:32:32;;;;;;;27.50;12.93;;;1.00;99.90;;;;;;5036500;28;20263;-82
2022/01/27 07:34:58;;;;;;;22.27;13.03;;;1.00;99.90;;;;;;5055000;28;20652;-83
2022/01/27 07:37:24;;;;;;;23.10;12.43;;;1.00;99.90;;;;;;5055881;28;20188;-83
2022/01/27 07:39:49;;;;;;;18.63;10.17;;;1.50;99.90;;;;;;5065557;28;20187;-84
2022/01/27 07:42:15;;;;;;;21.93;12.70;;;1.00;99.90;;;;;;5047926;28;20180;-83
2022/01/27 07:44:41;;;;;;;25.13;12.13;;;1.10;99.90;;;;;;5039808;28;20275;-81
2022/01/27 07:47:07;;;;;;;22.13;12.30;;;1.00;99.90;;;;;;5041641;28;20191;-83
2022/01/27 07:49:33;;;;;;;22.23;11.23;;;1.00;99.90;;;;;;5035917;28;20594;-83
2022/01/27 07:51:59;;;;;;;25.57;13.27;;;1.10;99.90;;;;;;5056978;28;20272;-81
2022/01/27 07:54:24;;;;;;;26.13;13.63;;;1.00;99.90;;;;;;5054289;28;20298;-83
2022/01/27 07:56:50;;;;;;;25.50;12.67;;;1.00;99.90;;;;;;5024677;28;20194;-82
2022/01/27 07:59:16;;;;;;;32.67;13.70;;;1.00;99.90;;;;;;5039832;28;20270;-81
2022/01/27 08:01:42;;;;;;;28.83;14.47;;;1.00;99.90;;;;;;5024684;28;20186;-84
2022/01/27 08:04:07;;;;;;;28.30;14.53;;;1.10;99.90;;;;;;5038473;28;20201;-82
2022/01/27 08:06:33;;;;;;;23.10;12.60;;;1.10;99.90;;;;;;5024504;28;20317;-85
2022/01/27 08:08:59;;;;;;;21.57;12.00;;;1.00;99.90;;;;;;5059397;28;20188;-82
2022/01/27 08:11:25;;;;;;;24.67;13.67;;;1.70;99.90;;;;;;5021837;28;20199;-83
2022/01/27 08:13:52;;;;;;;27.30;13.10;;;2.40;99.90;;;;;;5057691;28;20223;-85
2022/01/27 08:16:17;;;;;;;24.27;12.80;;;1.00;99.90;;;;;;5028469;28;20192;-82
2022/01/27 08:18:43;;;;;;;29.30;14.23;;;3.10;99.90;;;;;;5040016;28;20237;-82
2022/01/27 08:21:09;;;;;;;26.77;12.27;;;0.80;99.90;;;;;;5045968;28;20548;-81
2022/01/27 08:23:34;;;;;;;24.37;12.30;;;1.00;99.90;;;;;;5042255;28;20282;-82
2022/01/27 08:26:07;;;;;;;24.53;12.17;;;1.00;99.90;;;;;;5043994;28;20263;-81
2022/01/27 08:29:06;;;;;;;25.60;13.67;;;1.00;99.90;;;;;;5058569;28;20179;-82
2022/01/27 08:31:19;;;;;;;25.90;13.40;;;;;;;;;;5042682;28;20660;-81
2022/01/27 08:33:45;;;;;;;32.67;14.23;;;5.30;99.90;;;;;;5023189;28;20217;-82
2022/01/27 08:36:13;;;;;;;24.83;14.37;;;1.50;99.90;;;;;;5053684;28;20668;-82
2022/01/27 08:38:43;;;;;;;26.60;12.07;;;1.40;99.90;;;;;;5038066;28;20183;-83
2022/01/27 08:41:10;;;;;;;35.87;15.47;;;1.00;99.90;;;;;;5021624;28;20273;-82
2022/01/27 08:43:35;;;;;;;32.80;15.83;;;1.10;99.90;;;;;;5025747;28;20231;-83
2022/01/27 08:46:02;;;;;;;38.43;17.73;;;1.60;99.90;;;;;;5041082;28;20277;-81
2022/01/27 08:48:59;;;;;;;29.47;13.77;;;1.10;99.90;;;;;;5043539;28;20184;-82
2022/01/27 08:51:26;;;;;;;28.83;13.77;;;1.10;99.90;;;;;;5046147;28;20184;-82
2022/01/27 08:53:54;;;;;;;34.07;16.23;;;;;;;;;;5023784;28;20208;-83
2022/01/27 08:56:20;;;;;;;26.53;12.93;;;1.00;99.90;;;;;;5045307;28;20188;-82
2022/01/27 08:58:47;;;;;;;32.23;16.43;;;1.10;99.90;;;;;;5041249;28;20195;-82
2022/01/27 09:01:13;;;;;;;31.30;15.20;;;1.10;99.90;;;;;;5040266;28;20191;-81
2022/01/27 09:03:39;;;;;;;35.80;16.13;;;1.10;99.90;;;;;;5040281;28;20708;-83
2022/01/27 09:06:04;;;;;;;34.37;14.80;;;1.10;99.90;;;;;;5042629;28;20248;-82
2022/01/27 09:08:30;;;;;;;37.63;17.27;;;;;;;;;;5032086;28;20240;-83
2022/01/27 09:10:56;;;;;;;29.53;13.70;;;1.10;99.90;;;;;;5020630;28;20192;-83
2022/01/27 09:13:22;;;;;;;31.20;15.73;;;3.20;99.90;;;;;;5057933;28;20176;-82
2022/01/27 09:15:49;;;;;;;30.30;15.00;;;;;;;;;;5041430;28;20546;-81
2022/01/27 09:18:16;;;;;;;27.87;13.70;;;1.10;99.90;;;;;;5048109;28;20180;-81
2022/01/27 09:20:44;;;;;;;30.60;15.17;;;1.10;99.90;;;;;;5068685;28;20180;-82
2022/01/27 09:23:14;;;;;;;21.47;11.93;;;2.10;99.90;;;;;;5035704;28;20181;-81
2022/01/27 09:25:44;;;;;;;24.10;12.20;;;1.20;99.90;;;;;;5070178;28;20180;-81
2022/01/27 09:28:14;;;;;;;27.60;13.70;;;1.10;99.90;;;;;;5056395;28;20240;-82
2022/01/27 09:30:43;;;;;;;23.37;12.47;;;1.10;99.90;;;;;;5048612;28;20262;-81
2022/01/27 09:33:10;;;;;;;20.90;9.20;;;1.10;99.90;;;;;;5036145;28;20187;-84
2022/01/27 09:35:35;;;;;;;29.57;15.07;;;1.10;99.90;;;;;;5035632;28;20219;-84
2022/01/27 09:38:01;;;;;;;32.90;14.37;;;2.90;99.90;;;;;;5053493;28;20230;-83
2022/01/27 09:40:29;;;;;;;30.00;14.03;;;1.00;99.90;;;;;;5019263;28;20184;-83
2022/01/27 09:42:55;;;;;;;30.33;14.67;;;1.10;99.90;;;;;;5053392;28;20194;-83
2022/01/27 09:45:22;;;;;;;37.70;15.63;;;1.10;99.90;;;;;;5034548;28;20215;-87
2022/01/27 09:47:57;;;;;;;36.97;16.50;;;1.10;99.90;;;;;;5044465;28;20187;-85
2022/01/27 09:50:47;;;;;;;32.40;14.10;;;1.20;99.90;;;;;;5045767;28;20277;-82
2022/01/27 09:53:13;;;;;;;30.03;14.90;;;;;;;;;;5061627;28;20176;-83
2022/01/27 09:55:39;;;;;;;33.60;16.47;;;1.20;99.90;;;;;;5036940;28;20301;-83
2022/01/27 09:58:06;;;;;;;37.37;18.00;;;1.30;99.90;;;;;;5047177;28;20276;-84
2022/01/27 10:00:32;;;;;;;32.70;14.07;;;1.20;99.90;;;;;;5055268;28;20202;-85
2022/01/27 10:03:11;;;;;;;28.80;14.83;;;1.20;99.90;;;;;;5034943;28;20624;-85
2022/01/27 10:05:38;;;;;;;38.10;17.80;;;1.30;99.90;;;;;;5070200;28;20243;-84
2022/01/27 10:08:14;;;;;;;36.87;18.20;;;1.40;99.90;;;;;;5077078;28;20269;-84
2022/01/27 10:10:48;;;;;;;37.73;18.33;;;1.40;99.90;;;;;;5071859;28;20164;-87
2022/01/27 10:13:47;;;;;;;19.87;10.30;;;3.30;99.90;;;;;;5059106;28;20167;-86
2022/01/27 10:16:29;;;;;;;34.77;15.07;;;1.50;99.90;;;;;;5048431;28;20331;-83
2022/01/27 10:19:12;;;;;;;38.30;17.50;;;0.80;99.90;;;;;;5053656;28;20189;-85
2022/01/27 10:21:39;;;;;;;25.77;11.23;;;1.40;99.90;;;;;;5063396;28;20790;-84
2022/01/27 10:24:23;;;;;;;39.30;18.63;;;1.50;99.90;;;;;;5067469;28;20205;-86
2022/01/27 10:27:17;;;;;;;48.53;18.03;;;1.50;99.90;;;;;;5066272;28;20273;-84
2022/01/27 10:32:43;;;;;;;35.10;16.67;;;2.70;99.90;;;;;;5063773;28;20208;-84
2022/01/27 10:35:11;;;;;;;28.90;13.47;;;1.50;99.90;;;;;;5060046;28;20660;-85
2022/01/27 10:37:58;;;;;;;30.37;14.50;;;1.60;99.90;;;;;;5068127;28;20255;-84
2022/01/27 10:40:34;;;;;;;38.03;17.53;;;1.60;99.90;;;;;;5045668;28;20179;-86
2022/01/27 10:43:03;;;;;;;36.07;18.33;;;1.60;99.90;;;;;;5067805;28;20178;-85
2022/01/27 10:45:29;;;;;;;46.93;19.90;;;1.60;99.90;;;;;;5038752;28;20172;-85
2022/01/27 10:48:20;;;;;;;37.63;16.60;;;1.60;99.90;;;;;;5069835;28;20172;-85
2022/01/27 10:50:59;;;;;;;39.67;17.57;;;3.00;99.90;;;;;;5072643;28;20179;-84
2022/01/27 10:53:45;;;;;;;45.47;20.40;;;1.60;99.90;;;;;;5050169;28;20180;-85
2022/01/27 10:56:19;;;;;;;41.83;19.27;;;2.70;99.90;;;;;;5054079;28;20164;-84
2022/01/27 10:58:45;;;;;;;37.50;17.83;;;;;;;;;;5054142;28;20250;-83
2022/01/27 11:01:20;;;;;;;43.60;18.13;;;1.70;99.90;;;;;;5042240;28;20188;-84
2022/01/27 11:03:51;;;;;;;47.27;20.97;;;2.00;99.90;;;;;;5057898;28;20254;-84
2022/01/27 11:06:16;;;;;;;42.43;18.63;;;1.70;99.90;;;;;;5063067;28;20302;-86
2022/01/27 11:08:43;;;;;;;47.87;19.60;;;1.70;99.90;;;;;;5035087;28;20262;-85
2022/01/27 11:11:09;;;;;;;40.87;17.17;;;1.80;99.90;;;;;;5038415;28;20184;-84
2022/01/27 11:13:35;;;;;;;37.80;18.47;;;1.90;99.90;;;;;;5039483;28;20176;-84
2022/01/27 11:16:03;;;;;;;40.60;18.17;;;1.80;99.90;;;;;;5053449;28;20179;-84
2022/01/27 11:18:30;;;;;;;36.17;17.77;;;1.80;99.90;;;;;;5045502;28;20199;-84
2022/01/27 11:21:11;;;;;;;38.47;16.23;;;3.30;99.90;;;;;;5057282;28;20188;-85
2022/01/27 11:26:08;;;;;;;36.30;15.30;;;1.80;99.90;;;;;;5071553;28;20228;-85
2022/01/27 11:28:35;;;;;;;43.23;18.43;;;2.40;99.90;;;;;;5074696;28;20189;-84
2022/01/27 11:31:36;;;;;;;36.67;17.33;;;1.80;99.90;;;;;;5059956;28;20686;-84
2022/01/27 11:34:05;;;;;;;44.27;16.37;;;2.00;99.90;;;;;;5047339;28;20207;-81
2022/01/27 11:36:32;;;;;;;31.90;13.83;;;;;;;;;;5075998;28;20179;-82
2022/01/27 11:39:00;;;;;;;38.60;18.10;;;1.90;99.90;;;;;;5063987;28;20180;-82
2022/01/27 11:41:39;;;;;;;33.20;16.13;;;1.90;99.90;;;;;;5070480;28;20304;-82
2022/01/27 11:44:21;;;;;;;36.07;16.70;;;1.90;99.90;;;;;;5057880;28;20267;-82
2022/01/27 11:47:17;;;;;;;36.87;16.60;;;1.90;99.90;;;;;;5068040;28;20171;-82
2022/01/27 11:50:06;;;;;;;32.37;15.83;;;2.00;99.90;;;;;;5058841;28;20182;-83
2022/01/27 11:52:52;;;;;;;38.57;17.67;;;2.20;99.90;;;;;;5075938;28;20168;-84
2022/01/27 11:55:27;;;;;;;32.63;16.47;;;1.90;99.90;;;;;;5079721;28;20206;-85
2022/01/27 11:57:53;;;;;;;26.97;13.77;;;;;;;;;;5065302;28;20171;-84
2022/01/27 12:00:31;;;;;;;32.30;16.53;;;2.00;99.90;;;;;;5077848;28;20202;-84
2022/01/27 12:02:56;;;;;;;38.20;16.57;;;2.20;99.90;;;;;;5031845;28;20177;-81
2022/01/27 12:05:25;;;;;;;26.97;13.60;;;2.00;99.90;;;;;;5073151;28;20636;-81
2022/01/27 12:08:09;;;;;;;30.57;14.80;;;2.00;99.90;;;;;;5055002;28;20184;-83
2022/01/27 12:10:45;;;;;;;32.37;14.97;;;2.00;99.90;;;;;;5051294;28;20290;-82
2022/01/27 12:13:28;;;;;;;31.17;14.73;;;2.10;99.90;;;;;;5051456;28;20269;-84
2022/01/27 12:16:26;;;;;;;30.73;16.00;;;2.50;99.90;;;;;;5044142;28;20554;-83
2022/01/27 12:19:03;;;;;;;30.87;15.73;;;2.10;99.90;;;;;;5052344;28;20301;-83
2022/01/27 12:21:51;;;;;;;32.77;15.30;;;2.20;99.90;;;;;;5050174;28;20195;-83
2022/01/27 12:24:25;;;;;;;26.57;14.20;;;2.10;99.90;;;;;;5047426;28;20179;-85
2022/01/27 12:27:01;;;;;;;26.93;12.23;;;2.10;99.90;;;;;;5074715;28;20222;-82
2022/01/27 12:29:27;;;;;;;29.97;13.87;;;2.10;99.90;;;;;;5068525;28;20637;-83
2022/01/27 12:31:54;;;;;;;27.97;14.70;;;2.10;99.90;;;;;;5071783;28;20179;-81
2022/01/27 12:34:20;;;;;;;29.80;14.60;;;1.90;99.90;;;;;;5052474;28;20211;-82
2022/01/27 12:36:54;;;;;;;28.73;17.13;;;2.10;99.90;;;;;;5022488;28;20196;-82
2022/01/27 12:39:25;;;;;;;26.33;11.47;;;2.00;99.90;;;;;;5037266;28;20186;-82
2022/01/27 12:41:53;;;;;;;30.87;15.87;;;2.10;99.90;;;;;;5037233;28;20176;-82
2022/01/27 12:44:19;;;;;;;32.17;15.67;;;2.00;99.90;;;;;;5041204;28;20262;-84
2022/01/27 12:47:05;;;;;;;26.77;13.10;;;2.50;99.90;;;;;;5062487;28;20171;-82
2022/01/27 12:49:42;;;;;;;31.93;15.27;;;1.90;99.90;;;;;;5065099;28;20345;-84
2022/01/27 12:52:10;;;;;;;37.80;18.40;;;3.50;99.90;;;;;;5040900;28;20709;-83
2022/01/27 12:54:37;;;;;;;27.90;14.67;;;1.80;99.90;;;;;;5045735;28;20211;-83
2022/01/27 12:57:04;;;;;;;32.00;17.87;;;1.80;99.90;;;;;;5048892;28;20621;-84
2022/01/27 12:59:36;;;;;;;35.07;15.00;;;1.80;99.90;;;;;;5047122;28;20198;-85
2022/01/27 13:02:07;;;;;;;34.40;17.17;;;2.90;99.90;;;;;;5063941;28;20565;-83
2022/01/27 13:04:34;;;;;;;33.57;17.83;;;1.80;99.90;;;;;;5035703;28;20540;-84
2022/01/27 13:07:00;;;;;;;30.20;15.97;;;1.80;99.90;;;;;;5035429;28;20264;-84
2022/01/27 13:09:27;;;;;;;34.77;16.77;;;2.50;99.90;;;;;;5052940;28;20194;-85
2022/01/27 13:11:55;;;;;;;33.87;16.70;;;1.70;99.90;;;;;;5018844;28;20180;-82
2022/01/27 13:14:21;;;;;;;35.30;17.97;;;1.70;99.90;;;;;;5045407;28;20706;-82
2022/01/27 13:16:52;;;;;;;36.07;16.80;;;1.70;99.90;;;;;;5047127;28;20176;-83
2022/01/27 13:19:25;;;;;;;32.63;18.07;;;1.80;99.90;;;;;;5045087;28;20176;-82
2022/01/27 13:22:07;;;;;;;33.57;15.57;;;1.80;99.90;;;;;;5043139;28;20180;-81
2022/01/27 13:24:34;;;;;;;39.43;16.67;;;1.90;99.90;;;;;;5049108;28;20214;-82
2022/01/27 13:27:12;;;;;;;32.53;15.30;;;2.00;99.90;;;;;;5052641;28;20684;-82
2022/01/27 13:29:48;;;;;;;29.90;14.47;;;1.80;99.90;;;;;;5045977;28;20179;-82
2022/01/27 13:32:15;;;;;;;29.37;14.00;;;1.80;99.90;;;;;;5038937;28;20627;-83
2022/01/27 13:34:48;;;;;;;36.07;16.13;;;1.90;99.90;;;;;;5038919;28;20257;-82
2022/01/27 13:37:25;;;;;;;24.13;13.63;;;1.90;99.90;;;;;;5073370;28;20204;-82
2022/01/27 13:42:20;;;;;;;29.73;15.40;;;1.90;99.90;;;;;;5073808;28;20654;-83
2022/01/27 13:44:57;;;;;;;31.30;15.73;;;1.90;99.90;;;;;;5055695;28;20499;-84
2022/01/27 13:47:33;;;;;;;30.30;15.60;;;1.80;99.90;;;;;;5073936;28;20540;-83
2022/01/27 13:50:13;;;;;;;20.57;10.70;;;1.90;99.90;;;;;;5074551;28;20309;-82